createdAt,value
2019-06-10T00:01:11.948Z,101420.49
2019-06-10T00:03:45.410Z,101423.96
2019-06-10T00:06:20.812Z,101420.34
2019-06-10T00:08:53.628Z,101410.28
2019-06-10T00:11:26.866Z,101405.95
2019-06-10T00:14:02.442Z,101404.73
2019-06-10T00:16:34.966Z,101403.77
2019-06-10T00:19:10.144Z,101410.02
2019-06-10T00:21:42.995Z,101397.86
2019-06-10T00:24:17.149Z,101411.88
2019-06-10T00:26:51.020Z,101412.75
2019-06-10T00:29:25.533Z,101393.31
2019-06-10T00:32:01.728Z,101394.65
2019-06-10T00:34:35.094Z,101397.95
2019-06-10T00:37:10.308Z,101392.52
2019-06-10T00:39:43.274Z,101394.65
2019-06-10T00:42:16.514Z,101386.25
2019-06-10T00:44:50.901Z,101381.92
2019-06-10T00:47:24.177Z,101384.59
2019-06-10T00:49:57.445Z,101386.41
2019-06-10T00:52:30.922Z,101386.61
2019-06-10T00:55:04.904Z,101383.00
2019-06-10T00:57:41.705Z,101388.34
2019-06-10T01:00:25.212Z,101383.95
2019-06-10T01:02:51.773Z,101385.28
2019-06-10T01:05:25.094Z,101387.21
2019-06-10T01:07:58.442Z,101384.86
2019-06-10T01:10:32.182Z,101374.03
2019-06-10T01:13:05.348Z,101375.38
2019-06-10T01:15:41.670Z,101374.19
2019-06-10T01:18:32.024Z,101365.27
2019-06-10T01:20:51.577Z,101369.70
2019-06-10T01:23:24.387Z,101362.65
2019-06-10T01:25:57.692Z,101359.23
2019-06-10T01:28:31.403Z,101362.06
2019-06-10T01:31:08.524Z,101356.66
2019-06-10T01:33:41.113Z,101352.66
2019-06-10T01:36:16.450Z,101352.77
2019-06-10T01:38:51.187Z,101354.64
2019-06-10T01:41:24.438Z,101347.53
2019-06-10T01:43:57.762Z,101343.20
2019-06-10T01:46:31.630Z,101338.19
2019-06-10T01:49:05.000Z,101334.24
2019-06-10T01:51:38.221Z,101330.03
2019-06-10T01:54:12.391Z,101324.30
2019-06-10T01:56:46.562Z,101319.03
2019-06-10T01:59:21.940Z,101322.88
2019-06-10T02:02:00.981Z,101323.20
2019-06-10T02:04:34.587Z,101322.41
2019-06-10T02:07:09.213Z,101320.63
2019-06-10T02:09:42.896Z,101321.87
2019-06-10T02:12:18.754Z,101324.95
2019-06-10T02:14:51.125Z,101317.48
2019-06-10T02:17:24.483Z,101312.52
2019-06-10T02:19:57.850Z,101309.95
2019-06-10T02:22:32.097Z,101310.06
2019-06-10T02:25:05.680Z,101305.41
2019-06-10T02:27:41.347Z,101279.42
2019-06-10T02:30:26.316Z,101289.12
2019-06-10T02:32:52.131Z,101282.67
2019-06-10T02:35:30.446Z,101276.48
2019-06-10T02:37:58.364Z,101263.73
2019-06-10T02:40:35.773Z,101243.65
2019-06-10T02:43:07.704Z,101241.96
2019-06-10T02:45:44.207Z,101225.59
2019-06-10T02:48:19.665Z,101218.66
2019-06-10T02:51:08.312Z,101214.33
2019-06-10T02:53:43.490Z,101209.59
2019-06-10T02:56:17.721Z,101204.32
2019-06-10T02:58:53.501Z,101186.75
2019-06-10T03:01:31.884Z,101184.67
2019-06-10T03:04:04.314Z,101184.30
2019-06-10T03:06:39.986Z,101179.98
2019-06-10T03:09:13.794Z,101183.13
2019-06-10T03:11:45.724Z,101181.53
2019-06-10T03:14:19.778Z,101173.31
2019-06-10T03:16:57.635Z,101179.13
2019-06-10T03:19:45.812Z,101174.11
2019-06-10T03:22:05.602Z,101172.78
2019-06-10T03:24:38.658Z,101175.23
2019-06-10T03:27:12.638Z,101170.31
2019-06-10T03:29:45.936Z,101168.02
2019-06-10T03:32:20.144Z,101162.53
2019-06-10T03:34:54.997Z,101161.13
2019-06-10T03:37:28.353Z,101165.93
2019-06-10T03:40:02.482Z,101162.78
2019-06-10T03:42:36.218Z,101160.12
2019-06-10T03:45:12.447Z,101153.92
2019-06-10T03:47:45.035Z,101150.88
2019-06-10T03:50:19.190Z,101149.86
2019-06-10T03:52:52.528Z,101140.96
2019-06-10T03:55:27.927Z,101135.63
2019-06-10T03:58:02.225Z,101133.53
2019-06-10T04:00:37.097Z,101131.12
2019-06-10T04:03:12.121Z,101126.89
2019-06-10T04:05:46.482Z,101130.22
2019-06-10T04:08:22.030Z,101133.44
2019-06-10T04:10:54.419Z,101126.34
2019-06-10T04:13:28.470Z,101115.61
2019-06-10T04:16:02.380Z,101130.28
2019-06-10T04:18:35.971Z,101112.33
2019-06-10T04:21:09.149Z,101117.67
2019-06-10T04:23:42.641Z,101111.13
2019-06-10T04:26:17.563Z,101114.66
2019-06-10T04:28:53.063Z,101120.11
2019-06-10T04:31:26.873Z,101121.89
2019-06-10T04:34:02.941Z,101117.83
2019-06-10T04:36:35.377Z,101120.81
2019-06-10T04:39:09.162Z,101119.66
2019-06-10T04:41:42.785Z,101125.31
2019-06-10T04:44:16.039Z,101125.31
2019-06-10T04:46:49.142Z,101116.59
2019-06-10T04:49:25.088Z,101113.69
2019-06-10T04:51:57.156Z,101114.23
2019-06-10T04:54:30.460Z,101113.30
2019-06-10T04:57:03.926Z,101109.29
2019-06-10T04:59:38.411Z,101113.30
2019-06-10T05:02:12.880Z,101113.74
2019-06-10T05:04:46.254Z,101114.16
2019-06-10T05:07:19.530Z,101122.16
2019-06-10T05:09:52.732Z,101121.23
2019-06-10T05:12:26.771Z,101118.81
2019-06-10T05:15:03.282Z,101121.25
2019-06-10T05:17:35.655Z,101112.59
2019-06-10T05:20:09.503Z,101110.47
2019-06-10T05:22:42.708Z,101097.69
2019-06-10T05:25:17.032Z,101100.42
2019-06-10T05:27:52.220Z,101093.19
2019-06-10T05:30:29.107Z,101086.70
2019-06-10T05:33:03.073Z,101085.28
2019-06-10T05:35:43.630Z,101073.73
2019-06-10T05:38:18.733Z,101076.53
2019-06-10T05:40:52.219Z,101072.98
2019-06-10T05:43:26.396Z,101069.73
2019-06-10T05:46:02.589Z,101077.62
2019-06-10T05:48:35.185Z,101066.59
2019-06-10T05:51:08.650Z,101062.77
2019-06-10T05:53:42.735Z,101064.33
2019-06-10T05:56:16.925Z,101065.02
2019-06-10T05:58:52.253Z,101061.69
2019-06-10T06:01:25.657Z,101066.81
2019-06-10T06:03:58.986Z,101058.78
2019-06-10T06:06:34.071Z,101059.17
2019-06-10T06:09:08.882Z,101057.96
2019-06-10T06:11:43.055Z,101050.01
2019-06-10T06:14:16.597Z,101050.27
2019-06-10T06:16:49.856Z,101052.71
2019-06-10T06:19:23.317Z,101047.00
2019-06-10T06:21:56.663Z,101052.08
2019-06-10T06:24:29.929Z,101049.86
2019-06-10T06:27:03.378Z,101055.41
2019-06-10T06:29:38.250Z,101047.08
2019-06-10T06:32:13.182Z,101050.78
2019-06-10T06:34:47.595Z,101056.19
2019-06-10T06:37:23.203Z,101056.06
2019-06-10T06:39:56.136Z,101055.16
2019-06-10T06:42:29.565Z,101046.30
2019-06-10T06:45:03.352Z,101049.53
2019-06-10T06:47:37.699Z,101044.84
2019-06-10T06:50:13.046Z,101037.42
2019-06-10T06:53:16.924Z,101028.88
2019-06-10T06:55:23.388Z,101033.92
2019-06-10T06:57:56.626Z,101028.83
2019-06-10T07:00:52.964Z,101029.78
2019-06-10T07:03:12.550Z,101018.59
2019-06-10T07:05:48.475Z,101015.22
2019-06-10T07:08:22.784Z,101018.12
2019-06-10T07:10:58.557Z,101012.30
2019-06-10T07:13:37.125Z,101012.20
2019-06-10T07:16:09.555Z,101002.80
2019-06-10T07:18:49.554Z,101003.98
2019-06-10T07:21:17.989Z,101008.67
2019-06-10T07:23:52.891Z,101001.16
2019-06-10T07:26:26.498Z,100992.87
2019-06-10T07:29:02.738Z,100998.02
2019-06-10T07:31:36.548Z,100998.08
2019-06-10T07:34:10.006Z,100989.03
2019-06-10T07:36:45.190Z,100976.90
2019-06-10T07:39:18.505Z,100977.66
2019-06-10T07:41:52.881Z,100977.66
2019-06-10T07:44:26.404Z,100978.27
2019-06-10T07:47:02.409Z,100978.27
2019-06-10T07:49:35.372Z,100983.81
2019-06-10T07:52:18.500Z,100981.22
2019-06-10T07:54:45.402Z,100984.30
2019-06-10T07:57:18.810Z,100975.91
2019-06-10T07:59:52.460Z,100979.52
2019-06-10T08:02:25.922Z,100975.31
2019-06-10T08:04:59.348Z,100979.94
2019-06-10T08:07:33.483Z,100978.20
2019-06-10T08:10:13.260Z,100973.91
2019-06-10T08:12:48.273Z,100968.67
2019-06-10T08:15:22.996Z,100966.53
2019-06-10T08:17:57.063Z,100963.99
2019-06-10T08:20:47.629Z,100961.95
2019-06-10T08:23:23.655Z,100963.30
2019-06-10T08:25:57.981Z,100955.17
2019-06-10T08:28:33.246Z,100957.30
2019-06-10T08:31:06.598Z,100951.95
2019-06-10T08:33:42.560Z,100942.02
2019-06-10T08:36:15.244Z,100942.16
2019-06-10T08:38:49.170Z,100939.19
2019-06-10T08:41:23.200Z,100942.77
2019-06-10T08:43:56.878Z,100935.39
2019-06-10T08:46:32.993Z,100935.13
2019-06-10T08:49:07.102Z,100932.17
2019-06-10T08:51:45.427Z,100925.63
2019-06-10T08:54:16.162Z,100918.73
2019-06-10T08:56:50.906Z,100914.17
2019-06-10T08:59:25.906Z,100914.57
2019-06-10T09:01:59.343Z,100914.22
2019-06-10T09:04:33.198Z,100925.77
2019-06-10T09:07:06.627Z,100916.52
2019-06-10T09:09:40.511Z,100915.69
2019-06-10T09:12:28.735Z,100897.46
2019-06-10T09:14:52.998Z,100908.73
2019-06-10T09:17:25.716Z,100905.23
2019-06-10T09:19:59.131Z,100903.14
2019-06-10T09:22:32.775Z,100896.52
2019-06-10T09:25:07.166Z,100906.27
2019-06-10T09:27:44.941Z,100897.82
2019-06-10T09:30:18.779Z,100888.16
2019-06-10T09:32:56.361Z,100899.78
2019-06-10T09:35:28.846Z,100897.45
2019-06-10T09:38:03.700Z,100894.03
2019-06-10T09:41:00.815Z,100889.03
2019-06-10T09:43:28.380Z,100886.39
2019-06-10T09:46:03.673Z,100882.05
2019-06-10T09:48:37.254Z,100875.10
2019-06-10T09:51:13.362Z,100882.64
2019-06-10T09:54:01.115Z,100878.30
2019-06-10T09:56:29.493Z,100876.11
2019-06-10T09:59:17.889Z,100871.86
2019-06-10T10:01:58.720Z,100884.88
2019-06-10T10:04:32.893Z,100881.02
2019-06-10T10:07:34.671Z,100873.67
2019-06-10T10:10:23.995Z,100875.83
2019-06-10T10:13:28.495Z,100872.28
2019-06-10T10:16:08.836Z,100864.30
2019-06-10T10:18:48.297Z,100861.77
2019-06-10T10:21:36.256Z,100858.91
2019-06-10T10:24:15.081Z,100859.52
2019-06-10T10:26:56.952Z,100848.78
2019-06-10T10:29:27.272Z,100843.83
2019-06-10T10:32:02.621Z,100840.39
2019-06-10T10:34:36.223Z,100840.92
2019-06-10T10:37:12.234Z,100843.03
2019-06-10T10:39:49.066Z,100847.36
2019-06-10T10:42:23.869Z,100843.20
2019-06-10T10:44:59.262Z,100848.07
2019-06-10T10:47:33.866Z,100837.40
2019-06-10T10:50:13.654Z,100836.48
2019-06-10T10:52:46.766Z,100838.05
2019-06-10T10:55:33.481Z,100831.72
2019-06-10T10:58:45.350Z,100824.64
2019-06-10T11:01:23.784Z,100820.85
2019-06-10T11:03:59.238Z,100817.33
2019-06-10T11:06:32.410Z,100812.72
2019-06-10T11:09:12.987Z,100815.12
2019-06-10T11:11:48.862Z,100811.77
2019-06-10T11:14:23.068Z,100814.55
2019-06-10T11:16:58.882Z,100818.54
2019-06-10T11:19:32.939Z,100816.95
2019-06-10T11:22:06.167Z,100815.95
2019-06-10T11:24:42.283Z,100806.23
2019-06-10T11:27:14.133Z,100800.89
2019-06-10T11:29:48.171Z,100794.48
2019-06-10T11:32:21.820Z,100798.94
2019-06-10T11:34:56.875Z,100791.91
2019-06-10T11:37:30.660Z,100783.02
2019-06-10T11:40:04.979Z,100787.14
2019-06-10T11:42:38.615Z,100780.69
2019-06-10T11:45:12.729Z,100780.20
2019-06-10T11:47:46.690Z,100769.08
2019-06-10T11:50:23.228Z,100766.09
2019-06-10T11:53:00.234Z,100767.41
2019-06-10T11:55:33.332Z,100764.22
2019-06-10T11:58:07.157Z,100761.00
2019-06-10T12:00:42.530Z,100757.95
2019-06-10T12:03:15.518Z,100760.53
2019-06-10T12:05:49.099Z,100757.01
2019-06-10T12:08:23.702Z,100761.48
2019-06-10T12:11:01.820Z,100761.81
2019-06-10T12:13:34.667Z,100752.53
2019-06-10T12:18:44.511Z,100755.31
2019-06-10T12:21:17.811Z,100752.80
2019-06-10T12:23:54.809Z,100751.27
2019-06-10T12:26:26.179Z,100753.05
2019-06-10T12:29:01.710Z,100739.86
2019-06-10T12:31:34.928Z,100751.23
2019-06-10T12:34:08.723Z,100749.88
2019-06-10T12:36:41.849Z,100750.34
2019-06-10T12:39:58.201Z,100735.31
2019-06-10T12:42:33.776Z,100726.66
2019-06-10T12:45:12.756Z,100727.18
2019-06-10T12:48:16.321Z,100723.22
2019-06-10T12:50:55.329Z,100726.91
2019-06-10T12:53:26.659Z,100733.66
2019-06-10T12:56:02.751Z,100730.31
2019-06-10T12:58:34.673Z,100726.88
2019-06-10T13:01:08.135Z,100726.30
2019-06-10T13:03:43.640Z,100725.91
2019-06-10T13:06:18.773Z,100714.73
2019-06-10T13:08:56.387Z,100704.77
2019-06-10T13:11:29.525Z,100705.47
2019-06-10T13:14:05.113Z,100704.80
2019-06-10T13:16:37.751Z,100698.31
2019-06-10T13:19:13.152Z,100694.22
2019-06-10T13:21:45.876Z,100695.47
2019-06-10T13:24:22.323Z,100689.02
2019-06-10T13:26:56.540Z,100695.66
2019-06-10T13:29:38.151Z,100684.25
2019-06-10T13:32:12.825Z,100686.97
2019-06-10T13:34:48.858Z,100678.97
2019-06-10T13:37:22.822Z,100670.16
2019-06-10T13:39:57.455Z,100660.12
2019-06-10T13:42:35.687Z,100658.23
2019-06-10T13:45:08.180Z,100652.94
2019-06-10T13:48:01.127Z,100645.95
2019-06-10T13:50:38.861Z,100639.82
2019-06-10T13:53:13.544Z,100636.26
2019-06-10T13:55:47.282Z,100649.19
2019-06-10T13:58:23.053Z,100643.42
2019-06-10T14:00:56.227Z,100649.72
2019-06-10T14:03:32.678Z,100647.84
2019-06-10T14:06:25.798Z,100640.70
2019-06-10T14:08:43.194Z,100631.65
2019-06-10T14:11:18.714Z,100622.28
2019-06-10T14:13:54.723Z,100613.99
2019-06-10T14:16:28.552Z,100610.41
2019-06-10T14:19:05.760Z,100614.36
2019-06-10T14:21:39.379Z,100616.71
2019-06-10T14:24:15.977Z,100613.98
2019-06-10T14:26:48.671Z,100613.83
2019-06-10T14:29:22.356Z,100610.94
2019-06-10T14:31:56.060Z,100593.95
2019-06-10T14:34:29.891Z,100593.27
2019-06-10T14:37:03.806Z,100601.92
2019-06-10T14:39:38.993Z,100597.34
2019-06-10T14:42:15.007Z,100603.13
2019-06-10T14:44:53.931Z,100598.72
2019-06-10T14:47:28.730Z,100600.25
2019-06-10T14:50:05.191Z,100591.05
2019-06-10T14:52:39.043Z,100594.28
2019-06-10T14:55:16.401Z,100586.48
2019-06-10T14:57:48.510Z,100585.44
2019-06-10T15:00:23.741Z,100591.55
2019-06-10T15:02:57.616Z,100582.53
2019-06-10T15:05:32.383Z,100576.23
2019-06-10T15:08:07.216Z,100570.77
2019-06-10T15:10:43.019Z,100572.58
2019-06-10T15:13:16.110Z,100568.48
2019-06-10T15:15:49.533Z,100562.70
2019-06-10T15:18:23.873Z,100562.56
2019-06-10T15:20:57.781Z,100558.80
2019-06-10T15:23:32.529Z,100554.37
2019-06-10T15:26:09.914Z,100558.91
2019-06-10T15:28:43.722Z,100560.25
2019-06-10T15:31:19.555Z,100556.48
2019-06-10T15:33:53.408Z,100554.30
2019-06-10T15:36:27.353Z,100551.44
2019-06-10T15:39:01.081Z,100548.90
2019-06-10T15:41:36.221Z,100541.45
2019-06-10T15:44:09.869Z,100540.08
2019-06-10T15:46:43.386Z,100538.93
2019-06-10T15:49:19.359Z,100540.61
2019-06-10T15:51:52.775Z,100534.49
2019-06-10T15:54:26.765Z,100532.27
2019-06-10T15:57:00.342Z,100525.99
2019-06-10T15:59:34.146Z,100522.91
2019-06-10T16:02:13.866Z,100520.39
2019-06-10T16:04:46.727Z,100520.72
2019-06-10T16:07:25.774Z,100514.10
2019-06-10T16:10:03.813Z,100523.30
2019-06-10T16:13:03.437Z,100522.61
2019-06-10T16:15:43.469Z,100519.23
2019-06-10T16:18:20.088Z,100515.13
2019-06-10T16:20:54.667Z,100507.83
2019-06-10T16:23:29.044Z,100514.10
2019-06-10T16:26:29.993Z,100509.86
2019-06-10T16:29:15.206Z,100510.66
2019-06-10T16:31:52.951Z,100503.34
2019-06-10T16:34:41.306Z,100511.09
2019-06-10T16:52:15.719Z,100501.28
2019-06-10T16:54:58.108Z,100498.50
2019-06-10T16:57:33.445Z,100501.37
2019-06-10T17:00:18.331Z,100498.66
2019-06-10T17:03:15.144Z,100500.49
2019-06-10T17:05:53.237Z,100507.27
2019-06-10T17:08:28.429Z,100501.81
2019-06-10T17:11:03.282Z,100499.03
2019-06-10T17:13:37.466Z,100496.47
2019-06-10T17:16:12.782Z,100497.97
2019-06-10T17:18:47.087Z,100497.79
2019-06-10T17:21:24.709Z,100497.28
2019-06-10T17:23:58.346Z,100491.81
2019-06-10T17:26:37.874Z,100486.06
2019-06-10T17:29:11.874Z,100488.22
2019-06-10T17:31:49.029Z,100486.83
2019-06-10T17:34:25.963Z,100489.36
2019-06-10T17:36:59.557Z,100489.31
2019-06-10T17:39:34.913Z,100488.94
2019-06-10T17:42:12.418Z,100483.99
2019-06-10T17:44:52.906Z,100478.05
2019-06-10T17:47:34.695Z,100476.30
2019-06-10T17:50:12.653Z,100475.77
2019-06-10T17:52:46.807Z,100452.20
2019-06-10T17:55:24.874Z,100471.95
2019-06-10T17:57:57.879Z,100469.34
2019-06-10T18:00:36.071Z,100471.53
2019-06-10T18:03:13.019Z,100470.98
2019-06-10T18:05:48.591Z,100473.31
2019-06-10T18:08:24.399Z,100468.36
2019-06-10T18:11:03.072Z,100468.81
2019-06-10T18:13:38.079Z,100471.14
2019-06-10T18:16:14.462Z,100472.25
2019-06-10T18:18:48.864Z,100468.66
2019-06-10T18:21:24.748Z,100477.71
2019-06-10T18:24:05.035Z,100476.34
2019-06-10T18:26:39.086Z,100477.13
2019-06-10T18:29:18.021Z,100483.16
2019-06-10T18:31:54.872Z,100483.62
2019-06-10T18:34:37.810Z,100480.97
2019-06-10T18:37:09.679Z,100484.64
2019-06-10T18:39:43.196Z,100486.58
2019-06-10T18:42:19.603Z,100492.13
2019-06-10T18:44:53.071Z,100496.50
2019-06-10T18:47:27.547Z,100491.34
2019-06-10T18:50:01.198Z,100486.88
2019-06-10T18:52:34.583Z,100487.66
2019-06-10T18:55:09.207Z,100490.81
2019-06-10T18:57:42.713Z,100493.45
2019-06-10T19:00:17.697Z,100493.63
2019-06-10T19:03:08.646Z,100500.80
2019-06-10T19:05:26.208Z,100495.97
2019-06-10T19:07:59.371Z,100500.47
2019-06-10T19:10:35.299Z,100506.52
2019-06-10T19:13:07.751Z,100498.13
2019-06-10T19:15:42.592Z,100495.53
2019-06-10T19:18:17.021Z,100495.59
2019-06-10T19:20:52.389Z,100492.98
2019-06-10T19:23:25.040Z,100490.20
2019-06-10T19:25:58.216Z,100488.07
2019-06-10T19:28:33.892Z,100489.59
2019-06-10T19:31:06.319Z,100490.02
2019-06-10T19:33:41.330Z,100490.21
2019-06-10T19:36:15.496Z,100497.73
2019-06-10T19:38:48.787Z,100495.09
2019-06-10T19:41:25.466Z,100495.52
2019-06-10T19:43:59.780Z,100496.95
2019-06-10T19:46:34.244Z,100493.84
2019-06-10T19:49:07.743Z,100489.13
2019-06-10T19:51:46.249Z,100497.02
2019-06-10T19:54:19.397Z,100499.29
2019-06-10T19:56:52.705Z,100495.58
2019-06-10T19:59:25.891Z,100488.44
2019-06-10T20:01:59.004Z,100496.62
2019-06-10T20:04:33.446Z,100495.15
2019-06-10T20:07:07.161Z,100488.81
2019-06-10T20:09:43.513Z,100494.50
2019-06-10T20:12:15.390Z,100495.89
2019-06-10T20:14:49.861Z,100497.19
2019-06-10T20:17:23.282Z,100492.11
2019-06-10T20:19:56.385Z,100494.00
2019-06-10T20:22:31.944Z,100482.39
2019-06-10T20:25:04.758Z,100484.34
2019-06-10T20:27:37.927Z,100482.67
2019-06-10T20:30:24.287Z,100481.10
2019-06-10T20:32:51.878Z,100484.80
2019-06-10T20:35:23.214Z,100485.80
2019-06-10T20:37:57.592Z,100483.85
2019-06-10T20:40:32.071Z,100477.89
2019-06-10T20:43:05.841Z,100485.53
2019-06-10T20:45:39.533Z,100483.59
2019-06-10T20:48:12.939Z,100487.18
2019-06-10T20:50:47.361Z,100491.63
2019-06-10T20:53:21.056Z,100489.33
2019-06-10T20:55:57.615Z,100492.77
2019-06-10T20:58:29.214Z,100493.16
2019-06-10T21:01:04.586Z,100496.25
2019-06-10T21:03:39.111Z,100497.14
2019-06-10T21:06:14.301Z,100504.89
2019-06-10T21:08:49.602Z,100508.98
2019-06-10T21:11:23.240Z,100517.17
2019-06-10T21:13:56.842Z,100515.80
2019-06-10T21:16:32.170Z,100512.03
2019-06-10T21:19:05.907Z,100508.38
2019-06-10T21:21:40.388Z,100507.19
2019-06-10T21:24:14.588Z,100501.73
2019-06-10T21:26:49.902Z,100509.19
2019-06-10T21:29:24.000Z,100518.27
2019-06-10T21:31:57.481Z,100511.77
2019-06-10T21:34:32.712Z,100509.23
2019-06-10T21:37:05.845Z,100504.72
2019-06-10T21:39:39.347Z,100507.91
2019-06-10T21:42:12.881Z,100511.09
2019-06-10T21:44:46.301Z,100509.86
2019-06-10T21:47:19.733Z,100505.63
2019-06-10T21:49:54.644Z,100502.77
2019-06-10T21:52:28.337Z,100506.95
2019-06-10T21:55:02.956Z,100511.70
2019-06-10T21:57:36.633Z,100498.13
2019-06-10T22:00:14.071Z,100486.16
2019-06-10T22:02:51.062Z,100491.19
2019-06-10T22:05:24.411Z,100497.20
2019-06-10T22:07:57.876Z,100492.55
2019-06-10T22:10:33.409Z,100483.61
2019-06-10T22:13:07.276Z,100490.83
2019-06-10T22:15:42.527Z,100495.73
2019-06-10T22:18:15.573Z,100489.97
2019-06-10T22:20:48.992Z,100498.91
2019-06-10T22:23:23.263Z,100500.72
2019-06-10T22:25:57.720Z,100507.09
2019-06-10T22:28:32.797Z,100518.56
2019-06-10T22:31:19.117Z,100516.36
2019-06-10T22:33:43.125Z,100521.14
2019-06-10T22:36:16.650Z,100522.59
2019-06-10T22:38:50.098Z,100530.55
2019-06-10T22:41:25.063Z,100539.22
2019-06-10T22:43:59.679Z,100541.98
2019-06-10T22:46:33.443Z,100547.14
2019-06-10T22:49:07.698Z,100534.77
2019-06-10T22:51:42.872Z,100534.77
2019-06-10T22:54:15.952Z,100538.13
2019-06-10T22:56:49.673Z,100538.13
2019-06-10T22:59:23.056Z,100544.45
2019-06-10T23:01:57.981Z,100540.14
2019-06-10T23:04:33.141Z,100552.00
2019-06-10T23:07:06.469Z,100543.41
2019-06-10T23:09:39.861Z,100529.45
2019-06-10T23:12:13.273Z,100535.57
2019-06-10T23:14:46.599Z,100529.56
2019-06-10T23:17:21.918Z,100521.75
2019-06-10T23:19:56.546Z,100503.05
2019-06-10T23:22:30.149Z,100504.75
2019-06-10T23:25:03.524Z,100494.61
2019-06-10T23:27:36.905Z,100490.93
2019-06-10T23:30:11.730Z,100482.62
2019-06-10T23:32:45.420Z,100477.11
2019-06-10T23:35:18.871Z,100483.47
2019-06-10T23:37:55.141Z,100479.90
2019-06-10T23:40:27.473Z,100479.90
2019-06-10T23:43:01.648Z,100474.88
2019-06-10T23:45:35.866Z,100480.08
2019-06-10T23:48:09.235Z,100487.67
2019-06-10T23:50:43.686Z,100499.85
2019-06-10T23:53:17.312Z,100499.16
2019-06-10T23:55:51.788Z,100493.18
2019-06-10T23:58:25.570Z,100502.30
